createdAt,value
2019-05-28T00:00:02.239Z,4.4
2019-05-28T00:00:57.330Z,6.1
2019-05-28T00:01:58.041Z,5.1
2019-05-28T00:02:58.714Z,5.4
2019-05-28T00:03:59.400Z,5.7
2019-05-28T00:05:00.084Z,2.6
2019-05-28T00:06:00.775Z,4.7
2019-05-28T00:07:01.460Z,5.6
2019-05-28T00:08:02.151Z,5.2
2019-05-28T00:09:02.844Z,6.2
2019-05-28T00:10:03.816Z,5.5
2019-05-28T00:11:04.221Z,5.3
2019-05-28T00:12:04.933Z,5.6
2019-05-28T00:13:05.589Z,3.9
2019-05-28T00:14:06.272Z,5.2
2019-05-28T00:15:06.968Z,6.5
2019-05-28T00:16:09.917Z,7.0
2019-05-28T00:17:08.343Z,5.7
2019-05-28T00:18:09.038Z,4.9
2019-05-28T00:19:09.760Z,5.2
2019-05-28T00:20:10.399Z,4.0
2019-05-28T00:21:11.096Z,3.4
2019-05-28T00:22:11.780Z,8.4
2019-05-28T00:23:12.467Z,4.4
2019-05-28T00:24:13.165Z,3.1
2019-05-28T00:25:13.858Z,10.3
2019-05-28T00:26:14.544Z,3.1
2019-05-28T00:27:15.234Z,7.7
2019-05-28T00:28:15.923Z,5.8
2019-05-28T00:29:16.610Z,6.9
2019-05-28T00:30:20.257Z,5.9
2019-05-28T00:31:17.980Z,6.7
2019-05-28T00:32:18.665Z,3.5
2019-05-28T00:33:19.359Z,6.9
2019-05-28T00:34:20.052Z,6.4
2019-05-28T00:35:20.730Z,5.6
2019-05-28T00:36:21.423Z,3.4
2019-05-28T00:37:22.116Z,6.8
2019-05-28T00:38:22.803Z,6.3
2019-05-28T00:39:23.491Z,2.7
2019-05-28T00:40:24.175Z,4.4
2019-05-28T00:41:24.888Z,4.2
2019-05-28T00:42:25.554Z,8.0
2019-05-28T00:43:26.246Z,11.5
2019-05-28T00:44:26.945Z,3.7
2019-05-28T00:45:27.598Z,6.6
2019-05-28T00:46:28.278Z,3.3
2019-05-28T00:47:28.970Z,6.5
2019-05-28T00:48:29.654Z,5.2
2019-05-28T00:49:30.346Z,3.0
2019-05-28T00:50:31.031Z,6.9
2019-05-28T00:51:31.717Z,9.7
2019-05-28T00:52:32.409Z,8.7
2019-05-28T00:53:33.102Z,3.6
2019-05-28T00:54:33.784Z,2.9
2019-05-28T00:55:34.476Z,2.7
2019-05-28T00:56:35.164Z,5.0
2019-05-28T00:57:35.843Z,8.8
2019-05-28T00:58:36.511Z,3.1
2019-05-28T00:59:37.196Z,3.7
2019-05-28T01:00:37.885Z,5.1
2019-05-28T01:01:38.625Z,4.7
2019-05-28T01:02:39.252Z,6.2
2019-05-28T01:03:39.910Z,2.9
2019-05-28T01:04:40.639Z,6.8
2019-05-28T01:05:41.297Z,5.1
2019-05-28T01:06:41.991Z,3.6
2019-05-28T01:07:42.680Z,8.6
2019-05-28T01:08:43.376Z,7.2
2019-05-28T01:09:44.075Z,6.3
2019-05-28T01:10:44.767Z,5.0
2019-05-28T01:11:45.453Z,5.8
2019-05-28T01:12:46.184Z,7.7
2019-05-28T01:13:46.833Z,3.9
2019-05-28T01:14:47.526Z,5.2
2019-05-28T01:15:48.209Z,8.0
2019-05-28T01:16:48.897Z,3.5
2019-05-28T01:17:49.606Z,3.2
2019-05-28T01:18:50.276Z,9.7
2019-05-28T01:19:50.966Z,4.7
2019-05-28T01:20:51.644Z,7.2
2019-05-28T01:21:52.330Z,6.9
2019-05-28T01:22:53.026Z,4.9
2019-05-28T01:23:53.719Z,6.0
2019-05-28T01:24:54.398Z,3.9
2019-05-28T01:25:55.083Z,5.0
2019-05-28T01:26:55.773Z,11.0
2019-05-28T01:27:56.481Z,7.2
2019-05-28T01:28:57.165Z,8.3
2019-05-28T01:29:57.844Z,6.6
2019-05-28T01:31:00.839Z,7.3
2019-05-28T01:31:59.215Z,7.8
2019-05-28T01:32:59.902Z,4.2
2019-05-28T01:34:00.621Z,5.3
2019-05-28T01:35:01.312Z,5.1
2019-05-28T01:36:02.028Z,7.4
2019-05-28T01:37:02.680Z,4.5
2019-05-28T01:38:03.366Z,4.9
2019-05-28T01:39:04.075Z,8.5
2019-05-28T01:40:04.757Z,9.6
2019-05-28T01:41:05.441Z,7.7
2019-05-28T01:42:06.136Z,10.1
2019-05-28T01:43:06.831Z,5.2
2019-05-28T01:44:07.507Z,8.9
2019-05-28T01:45:08.197Z,4.5
2019-05-28T01:46:08.884Z,10.2
2019-05-28T01:47:09.573Z,6.6
2019-05-28T01:48:10.269Z,6.2
2019-05-28T01:49:10.955Z,6.4
2019-05-28T01:50:11.639Z,8.9
2019-05-28T01:51:12.334Z,5.9
2019-05-28T01:52:13.017Z,7.5
2019-05-28T01:53:13.719Z,7.4
2019-05-28T01:54:14.387Z,9.9
2019-05-28T01:55:15.077Z,10.8
2019-05-28T01:56:15.765Z,7.5
2019-05-28T01:57:16.453Z,10.4
2019-05-28T01:58:17.175Z,9.6
2019-05-28T01:59:17.830Z,8.2
2019-05-28T02:00:18.516Z,12.5
2019-05-28T02:01:19.214Z,11.2
2019-05-28T02:02:19.911Z,11.3
2019-05-28T02:03:20.585Z,10.6
2019-05-28T02:04:21.343Z,7.9
2019-05-28T02:05:21.961Z,5.6
2019-05-28T02:06:22.634Z,6.6
2019-05-28T02:07:23.320Z,8.2
2019-05-28T02:08:24.019Z,9.3
2019-05-28T02:09:24.701Z,6.3
2019-05-28T02:10:25.386Z,7.6
2019-05-28T02:11:26.071Z,7.4
2019-05-28T02:12:26.758Z,7.2
2019-05-28T02:13:27.446Z,7.8
2019-05-28T02:14:28.134Z,8.2
2019-05-28T02:15:28.819Z,8.3
2019-05-28T02:16:29.519Z,12.4
2019-05-28T02:17:30.208Z,8.3
2019-05-28T02:18:30.908Z,8.2
2019-05-28T02:19:31.594Z,9.9
2019-05-28T02:20:32.304Z,14.4
2019-05-28T02:21:32.985Z,7.4
2019-05-28T02:22:33.673Z,6.0
2019-05-28T02:23:34.366Z,9.5
2019-05-28T02:24:35.045Z,9.9
2019-05-28T02:25:35.782Z,9.0
2019-05-28T02:26:36.471Z,7.0
2019-05-28T02:27:37.154Z,10.0
2019-05-28T02:28:37.847Z,7.9
2019-05-28T02:29:38.531Z,6.9
2019-05-28T02:30:39.215Z,6.6
2019-05-28T02:31:39.911Z,8.6
2019-05-28T02:32:40.587Z,6.4
2019-05-28T02:33:41.276Z,7.2
2019-05-28T02:34:41.972Z,6.3
2019-05-28T02:35:42.661Z,9.7
2019-05-28T02:36:43.352Z,12.9
2019-05-28T02:37:44.042Z,8.2
2019-05-28T02:38:44.728Z,9.6
2019-05-28T02:39:45.413Z,7.2
2019-05-28T02:40:46.106Z,9.2
2019-05-28T02:41:46.790Z,9.0
2019-05-28T02:42:47.475Z,13.1
2019-05-28T02:43:48.173Z,10.8
2019-05-28T02:44:48.853Z,7.6
2019-05-28T02:45:49.545Z,8.8
2019-05-28T02:46:50.250Z,12.3
2019-05-28T02:47:50.935Z,8.3
2019-05-28T02:48:51.626Z,7.3
2019-05-28T02:49:52.310Z,11.1
2019-05-28T02:50:52.997Z,16.3
2019-05-28T02:51:53.683Z,12.0
2019-05-28T02:52:54.384Z,14.6
2019-05-28T02:53:55.056Z,8.8
2019-05-28T02:54:55.749Z,10.8
2019-05-28T02:55:56.435Z,9.8
2019-05-28T02:56:57.113Z,13.7
2019-05-28T02:57:57.796Z,8.8
2019-05-28T02:58:58.485Z,11.0
2019-05-28T02:59:59.194Z,8.8
2019-05-28T03:00:59.875Z,15.7
2019-05-28T03:02:00.555Z,12.9
2019-05-28T03:03:01.245Z,9.6
2019-05-28T03:04:01.946Z,8.2
2019-05-28T03:05:02.632Z,14.8
2019-05-28T03:06:03.319Z,13.4
2019-05-28T03:07:04.002Z,14.0
2019-05-28T03:08:04.690Z,10.4
2019-05-28T03:09:05.380Z,15.0
2019-05-28T03:10:06.067Z,11.9
2019-05-28T03:11:06.762Z,17.0
2019-05-28T03:12:07.444Z,16.8
2019-05-28T03:13:08.158Z,14.0
2019-05-28T03:14:08.825Z,16.9
2019-05-28T03:15:09.519Z,12.6
2019-05-28T03:16:10.182Z,12.1
2019-05-28T03:17:10.865Z,15.9
2019-05-28T03:18:11.563Z,17.3
2019-05-28T03:19:12.246Z,11.5
2019-05-28T03:20:12.933Z,13.4
2019-05-28T03:21:13.622Z,11.2
2019-05-28T03:22:14.309Z,15.4
2019-05-28T03:23:14.997Z,14.2
2019-05-28T03:24:15.726Z,13.4
2019-05-28T03:25:16.391Z,15.2
2019-05-28T03:26:17.080Z,11.9
2019-05-28T03:27:17.773Z,13.8
2019-05-28T03:28:18.454Z,14.5
2019-05-28T03:29:19.154Z,11.8
2019-05-28T03:30:19.843Z,11.6
2019-05-28T03:31:20.532Z,13.3
2019-05-28T03:32:21.229Z,7.9
2019-05-28T03:33:21.918Z,9.4
2019-05-28T03:34:22.594Z,13.7
2019-05-28T03:35:23.283Z,15.9
2019-05-28T03:36:23.979Z,11.1
2019-05-28T03:37:24.661Z,8.5
2019-05-28T03:38:25.347Z,17.7
2019-05-28T03:39:26.033Z,12.2
2019-05-28T03:40:26.721Z,11.2
2019-05-28T03:41:27.467Z,9.1
2019-05-28T03:42:28.158Z,9.2
2019-05-28T03:43:28.842Z,10.8
2019-05-28T03:44:29.535Z,11.9
2019-05-28T03:45:30.221Z,8.0
2019-05-28T03:46:30.884Z,10.0
2019-05-28T03:47:31.537Z,6.8
2019-05-28T03:48:32.225Z,9.6
2019-05-28T03:49:32.915Z,12.5
2019-05-28T03:50:33.607Z,12.5
2019-05-28T03:51:34.304Z,11.4
2019-05-28T03:52:34.987Z,9.0
2019-05-28T03:53:35.689Z,12.9
2019-05-28T03:54:36.375Z,12.6
2019-05-28T03:55:37.056Z,9.8
2019-05-28T03:56:37.747Z,12.8
2019-05-28T03:57:38.435Z,8.0
2019-05-28T03:58:39.450Z,10.9
2019-05-28T03:59:40.040Z,11.6
2019-05-28T04:00:40.731Z,7.0
2019-05-28T04:01:41.434Z,7.9
2019-05-28T04:02:42.114Z,6.7
2019-05-28T04:03:42.815Z,9.2
2019-05-28T04:04:43.501Z,6.1
2019-05-28T04:05:44.187Z,6.3
2019-05-28T04:06:44.888Z,9.4
2019-05-28T04:07:45.575Z,7.3
2019-05-28T04:08:46.274Z,10.0
2019-05-28T04:09:46.958Z,13.3
2019-05-28T04:10:47.658Z,9.2
2019-05-28T04:11:48.360Z,13.1
2019-05-28T04:12:49.046Z,12.1
2019-05-28T04:13:49.738Z,14.7
2019-05-28T04:14:50.436Z,8.8
2019-05-28T04:15:51.130Z,17.4
2019-05-28T04:16:51.822Z,9.4
2019-05-28T04:17:52.517Z,14.0
2019-05-28T04:18:53.209Z,6.4
2019-05-28T04:19:53.902Z,7.5
2019-05-28T04:20:54.585Z,7.5
2019-05-28T04:21:55.278Z,12.1
2019-05-28T04:22:55.975Z,12.3
2019-05-28T04:23:56.665Z,6.3
2019-05-28T04:24:57.365Z,10.6
2019-05-28T04:25:58.051Z,11.2
2019-05-28T04:26:58.742Z,8.2
2019-05-28T04:27:59.456Z,13.0
2019-05-28T04:29:00.137Z,7.1
2019-05-28T04:30:00.833Z,4.7
2019-05-28T04:31:01.536Z,9.3
2019-05-28T04:32:02.212Z,6.2
2019-05-28T04:33:02.914Z,6.8
2019-05-28T04:34:03.612Z,7.3
2019-05-28T04:35:04.304Z,7.3
2019-05-28T04:36:04.991Z,9.3
2019-05-28T04:37:05.682Z,11.9
2019-05-28T04:38:06.373Z,7.7
2019-05-28T04:39:07.067Z,11.6
2019-05-28T04:40:07.762Z,14.3
2019-05-28T04:41:08.452Z,10.1
2019-05-28T04:42:09.146Z,5.1
2019-05-28T04:43:09.837Z,5.1
2019-05-28T04:44:10.526Z,5.8
2019-05-28T04:45:11.220Z,7.9
2019-05-28T04:46:11.914Z,4.6
2019-05-28T04:47:12.604Z,9.3
2019-05-28T04:48:13.293Z,8.5
2019-05-28T04:49:13.991Z,8.3
2019-05-28T04:50:14.680Z,9.4
2019-05-28T04:51:15.378Z,7.6
2019-05-28T04:52:16.067Z,5.0
2019-05-28T04:53:16.758Z,11.1
2019-05-28T04:54:17.453Z,6.0
2019-05-28T04:55:18.143Z,9.8
2019-05-28T04:56:18.837Z,12.1
2019-05-28T04:57:19.528Z,7.4
2019-05-28T04:58:20.229Z,8.3
2019-05-28T04:59:20.917Z,5.3
2019-05-28T05:00:21.618Z,8.5
2019-05-28T05:01:22.327Z,8.1
2019-05-28T05:02:23.014Z,9.1
2019-05-28T05:03:23.717Z,10.1
2019-05-28T05:04:24.412Z,9.6
2019-05-28T05:05:25.089Z,11.3
2019-05-28T05:06:25.779Z,8.5
2019-05-28T05:07:26.482Z,9.5
2019-05-28T05:08:27.174Z,6.5
2019-05-28T05:09:27.863Z,9.3
2019-05-28T05:10:28.560Z,6.9
2019-05-28T05:11:29.251Z,10.7
2019-05-28T05:12:29.943Z,5.4
2019-05-28T05:13:30.618Z,7.7
2019-05-28T05:14:31.339Z,7.1
2019-05-28T05:15:32.017Z,6.8
2019-05-28T05:16:32.706Z,12.1
2019-05-28T05:17:33.399Z,9.2
2019-05-28T05:18:34.091Z,12.5
2019-05-28T05:19:34.785Z,6.5
2019-05-28T05:20:35.477Z,7.4
2019-05-28T05:21:36.179Z,7.6
2019-05-28T05:22:36.868Z,9.6
2019-05-28T05:23:37.557Z,5.7
2019-05-28T05:24:38.259Z,8.4
2019-05-28T05:25:38.954Z,7.8
2019-05-28T05:26:39.642Z,9.0
2019-05-28T05:27:40.331Z,7.4
2019-05-28T05:28:41.026Z,11.2
2019-05-28T05:29:41.714Z,11.0
2019-05-28T05:30:42.425Z,6.4
2019-05-28T05:31:43.104Z,9.1
2019-05-28T05:32:43.805Z,6.0
2019-05-28T05:33:44.493Z,8.4
2019-05-28T05:34:45.195Z,6.1
2019-05-28T05:35:45.885Z,8.1
2019-05-28T05:36:46.599Z,8.4
2019-05-28T05:37:47.286Z,9.0
2019-05-28T05:38:47.978Z,10.1
2019-05-28T05:39:49.269Z,10.7
2019-05-28T05:40:49.367Z,11.3
2019-05-28T05:41:50.060Z,10.6
2019-05-28T05:42:50.759Z,8.7
2019-05-28T05:43:51.477Z,11.4
2019-05-28T05:44:52.149Z,12.4
2019-05-28T05:45:52.841Z,12.1
2019-05-28T05:46:53.535Z,8.1
2019-05-28T05:47:54.245Z,7.8
2019-05-28T05:48:54.923Z,7.2
2019-05-28T05:49:55.624Z,18.0
2019-05-28T05:50:56.310Z,9.1
2019-05-28T05:51:57.002Z,14.7
2019-05-28T05:52:57.697Z,14.6
2019-05-28T05:53:58.397Z,15.5
2019-05-28T05:54:59.089Z,11.6
2019-05-28T05:55:59.781Z,9.0
2019-05-28T05:57:00.506Z,10.1
2019-05-28T05:58:01.219Z,6.2
2019-05-28T05:59:01.871Z,12.3
2019-05-28T06:00:02.566Z,6.7
2019-05-28T06:01:03.258Z,7.6
2019-05-28T06:02:03.952Z,7.3
2019-05-28T06:03:04.660Z,6.2
2019-05-28T06:04:05.352Z,8.9
2019-05-28T06:05:06.047Z,8.8
2019-05-28T06:06:06.743Z,7.4
2019-05-28T06:07:07.441Z,9.7
2019-05-28T06:08:08.150Z,8.2
2019-05-28T06:09:08.831Z,11.2
2019-05-28T06:10:09.524Z,8.5
2019-05-28T06:11:10.221Z,6.4
2019-05-28T06:12:10.914Z,8.7
2019-05-28T06:13:11.619Z,9.6
2019-05-28T06:14:12.308Z,10.8
2019-05-28T06:15:13.006Z,7.7
2019-05-28T06:16:13.697Z,19.1
2019-05-28T06:17:14.390Z,7.5
2019-05-28T06:18:15.091Z,9.5
2019-05-28T06:19:15.788Z,8.0
2019-05-28T06:20:16.490Z,7.1
2019-05-28T06:21:19.081Z,10.2
2019-05-28T06:22:17.880Z,8.1
2019-05-28T06:23:18.575Z,8.7
2019-05-28T06:24:19.271Z,9.6
2019-05-28T06:25:19.991Z,14.8
2019-05-28T06:26:20.658Z,9.0
2019-05-28T06:27:21.364Z,9.2
2019-05-28T06:28:22.050Z,12.1
2019-05-28T06:29:22.717Z,9.0
2019-05-28T06:30:23.413Z,8.4
2019-05-28T06:31:24.119Z,6.1
2019-05-28T06:32:24.801Z,8.6
2019-05-28T06:33:25.497Z,11.2
2019-05-28T06:34:26.196Z,10.3
2019-05-28T06:35:26.904Z,7.4
2019-05-28T06:36:27.588Z,5.9
2019-05-28T06:37:28.284Z,6.4
2019-05-28T06:38:28.967Z,11.7
2019-05-28T06:39:29.666Z,5.6
2019-05-28T06:40:30.378Z,7.6
2019-05-28T06:41:31.086Z,11.5
2019-05-28T06:42:36.342Z,7.9
2019-05-28T06:43:32.468Z,10.6
2019-05-28T06:44:33.168Z,9.8
2019-05-28T06:45:33.860Z,6.3
2019-05-28T06:46:34.560Z,5.5
2019-05-28T06:47:35.251Z,7.6
2019-05-28T06:48:35.947Z,5.5
2019-05-28T06:49:36.646Z,8.3
2019-05-28T06:50:37.336Z,11.0
2019-05-28T06:51:38.039Z,5.9
2019-05-28T06:52:38.725Z,6.0
2019-05-28T06:53:39.424Z,9.7
2019-05-28T06:54:40.122Z,8.5
2019-05-28T06:55:40.818Z,10.8
2019-05-28T06:56:41.507Z,7.4
2019-05-28T06:57:42.211Z,7.7
2019-05-28T06:58:42.896Z,9.0
2019-05-28T06:59:43.593Z,10.6
2019-05-28T07:00:44.293Z,8.9
2019-05-28T07:01:44.987Z,6.2
2019-05-28T07:02:45.693Z,10.2
2019-05-28T07:03:46.391Z,6.7
2019-05-28T07:04:47.086Z,8.5
2019-05-28T07:06:05.125Z,6.1
2019-05-28T07:06:48.475Z,7.4
2019-05-28T07:07:49.179Z,8.4
2019-05-28T07:08:49.867Z,7.8
2019-05-28T07:09:50.560Z,7.4
2019-05-28T07:10:57.726Z,11.5
2019-05-28T07:11:51.951Z,8.6
2019-05-28T07:12:52.648Z,7.1
2019-05-28T07:13:53.358Z,11.2
2019-05-28T07:14:54.050Z,10.6
2019-05-28T07:15:54.747Z,9.8
2019-05-28T07:16:55.459Z,13.7
2019-05-28T07:17:59.509Z,6.7
2019-05-28T07:18:56.837Z,9.3
2019-05-28T07:19:57.542Z,7.0
2019-05-28T07:20:58.234Z,10.1
2019-05-28T07:21:58.936Z,7.9
2019-05-28T07:22:59.629Z,6.0
2019-05-28T07:24:04.463Z,8.1
2019-05-28T07:25:01.015Z,9.8
2019-05-28T07:26:01.708Z,5.4
2019-05-28T07:27:02.477Z,12.2
2019-05-28T07:28:11.150Z,7.7
2019-05-28T07:29:03.798Z,10.3
2019-05-28T07:30:04.497Z,7.8
2019-05-28T07:31:05.193Z,15.5
2019-05-28T07:32:05.886Z,5.8
2019-05-28T07:33:06.640Z,8.4
2019-05-28T07:34:07.278Z,9.8
2019-05-28T07:35:07.982Z,7.4
2019-05-28T07:36:08.638Z,6.1
2019-05-28T07:37:09.340Z,6.5
2019-05-28T07:38:10.029Z,7.3
2019-05-28T07:39:12.300Z,8.4
2019-05-28T07:40:11.426Z,9.0
2019-05-28T07:41:12.120Z,11.3
2019-05-28T07:42:12.819Z,5.8
2019-05-28T07:43:13.512Z,6.1
2019-05-28T07:44:14.213Z,5.9
2019-05-28T07:45:14.911Z,11.3
2019-05-28T07:46:15.607Z,10.0
2019-05-28T07:47:16.305Z,9.5
2019-05-28T07:48:17.006Z,7.1
2019-05-28T07:49:17.705Z,6.6
2019-05-28T07:50:18.398Z,7.7
2019-05-28T07:51:19.102Z,9.3
2019-05-28T07:52:19.793Z,7.8
2019-05-28T07:53:20.496Z,11.0
2019-05-28T07:54:21.196Z,6.5
2019-05-28T07:55:21.891Z,8.2
2019-05-28T07:56:22.588Z,15.5
2019-05-28T07:57:23.283Z,11.5
2019-05-28T07:58:23.983Z,8.0
2019-05-28T07:59:24.676Z,15.8
2019-05-28T08:00:25.373Z,11.4
2019-05-28T08:01:26.070Z,11.1
2019-05-28T08:02:26.771Z,7.4
2019-05-28T08:03:27.469Z,11.2
2019-05-28T08:04:28.167Z,15.8
2019-05-28T08:05:28.856Z,8.0
2019-05-28T08:06:29.561Z,9.9
2019-05-28T08:07:30.261Z,9.1
2019-05-28T08:08:30.954Z,10.1
2019-05-28T08:09:31.645Z,13.7
2019-05-28T08:10:32.348Z,6.9
2019-05-28T08:11:33.050Z,10.2
2019-05-28T08:12:33.750Z,8.7
2019-05-28T08:13:40.712Z,12.3
2019-05-28T08:14:35.144Z,12.2
2019-05-28T08:15:35.837Z,8.1
2019-05-28T08:16:40.407Z,9.2
2019-05-28T08:17:37.424Z,7.8
2019-05-28T08:18:37.917Z,13.6
2019-05-28T08:19:38.614Z,11.1
2019-05-28T08:20:39.328Z,7.1
2019-05-28T08:21:40.021Z,10.6
2019-05-28T08:22:42.582Z,8.1
2019-05-28T08:23:41.409Z,8.8
2019-05-28T08:24:42.105Z,8.9
2019-05-28T08:25:47.489Z,6.2
2019-05-28T08:26:43.500Z,7.8
2019-05-28T08:27:44.200Z,8.3
2019-05-28T08:28:44.905Z,11.2
2019-05-28T08:29:45.861Z,5.5
2019-05-28T08:30:46.290Z,6.5
2019-05-28T08:31:46.983Z,5.8
2019-05-28T08:32:47.691Z,9.1
2019-05-28T08:33:48.392Z,4.4
2019-05-28T08:35:04.174Z,5.7
2019-05-28T08:35:51.734Z,6.3
2019-05-28T08:37:04.339Z,5.5
2019-05-28T08:37:51.164Z,6.8
2019-05-28T08:38:51.871Z,9.2
2019-05-28T08:39:52.556Z,5.2
2019-05-28T08:40:53.447Z,9.4
2019-05-28T08:41:53.949Z,8.6
2019-05-28T08:42:54.701Z,11.1
2019-05-28T08:43:55.371Z,5.5
2019-05-28T08:44:56.060Z,6.5
2019-05-28T08:45:56.756Z,4.2
2019-05-28T08:46:57.459Z,9.8
2019-05-28T08:47:58.160Z,6.7
2019-05-28T08:48:58.866Z,4.4
2019-05-28T08:49:59.572Z,6.8
2019-05-28T08:51:00.255Z,5.6
2019-05-28T08:52:00.948Z,7.2
2019-05-28T08:53:01.657Z,6.2
2019-05-28T08:54:02.600Z,10.2
2019-05-28T08:55:03.050Z,5.9
2019-05-28T08:56:03.746Z,6.5
2019-05-28T08:57:04.444Z,4.6
2019-05-28T08:58:05.175Z,7.3
2019-05-28T08:59:05.838Z,4.1
2019-05-28T09:00:06.651Z,4.9
2019-05-28T09:01:07.227Z,5.6
2019-05-28T09:02:23.922Z,8.4
2019-05-28T09:03:08.622Z,6.4
2019-05-28T09:04:09.337Z,7.3
2019-05-28T09:05:25.209Z,4.2
2019-05-28T09:06:10.714Z,6.7
2019-05-28T09:07:11.417Z,5.3
2019-05-28T09:08:12.097Z,4.4
2019-05-28T09:09:12.791Z,6.1
2019-05-28T09:10:13.488Z,2.7
2019-05-28T09:11:14.411Z,3.8
2019-05-28T09:12:14.896Z,6.8
2019-05-28T09:13:15.616Z,4.7
2019-05-28T09:14:16.305Z,5.1
2019-05-28T09:15:17.002Z,4.0
2019-05-28T09:16:17.707Z,7.2
2019-05-28T09:17:18.392Z,4.7
2019-05-28T09:18:19.089Z,5.8
2019-05-28T09:19:19.791Z,6.6
2019-05-28T09:20:20.513Z,6.8
2019-05-28T09:21:21.187Z,4.7
2019-05-28T09:22:25.630Z,6.5
2019-05-28T09:23:22.591Z,5.9
2019-05-28T09:24:23.273Z,6.3
2019-05-28T09:25:23.977Z,4.2
2019-05-28T09:26:24.677Z,8.7
2019-05-28T09:27:25.372Z,6.3
2019-05-28T09:28:30.710Z,6.4
2019-05-28T09:29:26.767Z,4.0
2019-05-28T09:30:27.469Z,5.0
2019-05-28T09:31:28.168Z,3.2
2019-05-28T09:32:28.870Z,6.4
2019-05-28T09:33:29.560Z,5.8
2019-05-28T09:34:30.255Z,4.7
2019-05-28T09:35:44.158Z,5.6
2019-05-28T09:36:31.647Z,6.4
2019-05-28T09:37:32.353Z,5.0
2019-05-28T09:38:33.048Z,3.7
2019-05-28T09:39:33.748Z,5.6
2019-05-28T09:40:49.437Z,5.5
2019-05-28T09:41:35.143Z,3.6
2019-05-28T09:42:35.836Z,6.0
2019-05-28T09:43:36.535Z,4.2
2019-05-28T09:44:37.236Z,8.0
2019-05-28T09:45:37.928Z,3.0
2019-05-28T09:46:38.630Z,5.8
2019-05-28T09:47:39.335Z,3.6
2019-05-28T09:48:40.027Z,6.0
2019-05-28T09:49:40.725Z,5.6
2019-05-28T09:50:41.426Z,3.9
2019-05-28T09:51:42.122Z,6.4
2019-05-28T09:52:53.657Z,4.2
2019-05-28T09:53:43.517Z,2.7
2019-05-28T09:54:44.220Z,4.5
2019-05-28T09:55:44.910Z,6.9
2019-05-28T09:56:45.615Z,3.6
2019-05-28T09:57:48.093Z,1.8
2019-05-28T09:58:47.001Z,2.1
2019-05-28T09:59:47.708Z,5.9
2019-05-28T10:00:58.292Z,2.8
2019-05-28T10:01:49.103Z,7.8
2019-05-28T10:02:49.801Z,5.5
2019-05-28T10:03:50.494Z,6.1
2019-05-28T10:04:51.473Z,3.4
2019-05-28T10:06:06.750Z,5.6
2019-05-28T10:06:52.624Z,5.9
2019-05-28T10:07:53.278Z,6.3
2019-05-28T10:08:53.986Z,3.8
2019-05-28T10:09:54.700Z,4.0
2019-05-28T10:10:55.405Z,6.4
2019-05-28T10:11:56.128Z,3.4
2019-05-28T10:12:56.796Z,5.1
2019-05-28T10:13:57.493Z,7.1
2019-05-28T10:14:58.185Z,5.6
2019-05-28T10:15:58.888Z,5.5
2019-05-28T10:16:59.583Z,6.7
2019-05-28T10:18:00.287Z,3.3
2019-05-28T10:19:00.984Z,3.8
2019-05-28T10:20:01.700Z,6.9
2019-05-28T10:21:16.871Z,5.5
2019-05-28T10:22:03.100Z,4.2
2019-05-28T10:23:03.783Z,8.4
2019-05-28T10:24:04.490Z,4.9
2019-05-28T10:25:05.191Z,5.1
2019-05-28T10:26:05.862Z,4.7
2019-05-28T10:27:06.589Z,3.9
2019-05-28T10:28:07.306Z,3.7
2019-05-28T10:29:07.993Z,2.1
2019-05-28T10:30:08.727Z,3.3
2019-05-28T10:31:09.427Z,3.6
2019-05-28T10:32:10.131Z,5.0
2019-05-28T10:33:10.837Z,4.6
2019-05-28T10:34:11.536Z,6.1
2019-05-28T10:35:12.232Z,3.7
2019-05-28T10:36:12.936Z,2.4
2019-05-28T10:37:13.637Z,3.9
2019-05-28T10:38:16.591Z,2.8
2019-05-28T10:39:15.043Z,4.0
2019-05-28T10:40:15.786Z,1.9
2019-05-28T10:41:16.474Z,3.1
2019-05-28T10:42:17.175Z,4.2
2019-05-28T10:43:17.885Z,3.1
2019-05-28T10:44:18.655Z,5.9
2019-05-28T10:45:19.277Z,6.4
2019-05-28T10:46:19.980Z,5.7
2019-05-28T10:47:20.683Z,5.4
2019-05-28T10:48:21.375Z,6.6
2019-05-28T10:49:22.080Z,2.8
2019-05-28T10:50:22.796Z,4.6
2019-05-28T10:51:23.481Z,2.4
2019-05-28T10:52:24.179Z,8.6
2019-05-28T10:53:24.885Z,4.1
2019-05-28T10:54:25.577Z,3.9
2019-05-28T10:55:26.284Z,2.0
2019-05-28T10:56:26.991Z,4.1
2019-05-28T10:57:27.680Z,2.9
2019-05-28T10:58:28.392Z,1.7
2019-05-28T10:59:29.079Z,4.1
2019-05-28T11:00:29.782Z,4.6
2019-05-28T11:01:30.511Z,6.5
2019-05-28T11:02:31.178Z,5.1
2019-05-28T11:03:31.877Z,4.0
2019-05-28T11:04:32.575Z,5.7
2019-05-28T11:05:33.278Z,3.3
2019-05-28T11:06:33.975Z,4.3
2019-05-28T11:07:34.676Z,7.3
2019-05-28T11:08:35.404Z,3.6
2019-05-28T11:09:36.101Z,3.6
2019-05-28T11:10:36.801Z,2.2
2019-05-28T11:11:37.505Z,4.2
2019-05-28T11:12:38.202Z,3.7
2019-05-28T11:13:52.095Z,3.3
2019-05-28T11:14:39.597Z,3.0
2019-05-28T11:15:40.305Z,6.5
2019-05-28T11:16:40.994Z,5.1
2019-05-28T11:17:41.715Z,4.8
2019-05-28T11:18:42.408Z,3.5
2019-05-28T11:19:43.095Z,6.1
2019-05-28T11:20:43.809Z,3.4
2019-05-28T11:21:44.519Z,3.3
2019-05-28T11:22:45.206Z,3.9
2019-05-28T11:23:45.899Z,3.4
2019-05-28T11:24:46.602Z,5.4
2019-05-28T11:25:47.302Z,3.2
2019-05-28T11:26:48.000Z,4.2
2019-05-28T11:27:48.707Z,4.2
2019-05-28T11:28:49.399Z,5.3
2019-05-28T11:29:50.105Z,3.6
2019-05-28T11:30:50.815Z,4.1
2019-05-28T11:31:51.511Z,3.9
2019-05-28T11:32:52.218Z,2.1
2019-05-28T11:33:52.912Z,2.7
2019-05-28T11:34:53.618Z,2.9
2019-05-28T11:35:54.312Z,2.3
2019-05-28T11:37:08.397Z,5.0
2019-05-28T11:37:55.710Z,3.1
2019-05-28T11:38:56.415Z,5.7
2019-05-28T11:39:57.149Z,4.5
2019-05-28T11:40:57.811Z,4.1
2019-05-28T11:41:58.515Z,5.6
2019-05-28T11:42:59.209Z,8.1
2019-05-28T11:43:59.934Z,3.8
2019-05-28T11:45:00.629Z,3.5
2019-05-28T11:46:01.308Z,5.3
2019-05-28T11:47:02.038Z,2.7
2019-05-28T11:48:02.736Z,4.6
2019-05-28T11:49:03.401Z,5.4
2019-05-28T11:50:04.102Z,5.3
2019-05-28T11:51:04.823Z,4.8
2019-05-28T11:52:05.586Z,2.6
2019-05-28T11:53:06.245Z,2.8
2019-05-28T11:54:06.938Z,3.6
2019-05-28T11:55:07.634Z,4.8
2019-05-28T11:56:08.333Z,4.0
2019-05-28T11:57:09.035Z,2.5
2019-05-28T11:58:09.727Z,3.8
2019-05-28T11:59:10.429Z,3.4
2019-05-28T12:00:11.124Z,2.9
2019-05-28T12:01:11.838Z,3.1
2019-05-28T12:02:12.523Z,3.4
2019-05-28T12:03:13.227Z,2.3
2019-05-28T12:04:13.931Z,4.7
2019-05-28T12:05:14.625Z,6.8
2019-05-28T12:06:15.330Z,2.3
2019-05-28T12:07:25.563Z,4.4
2019-05-28T12:08:16.725Z,1.9
2019-05-28T12:09:17.432Z,3.2
2019-05-28T12:10:18.149Z,2.2
2019-05-28T12:11:18.834Z,2.6
2019-05-28T12:12:19.531Z,3.5
2019-05-28T12:13:20.304Z,5.1
2019-05-28T12:14:20.943Z,3.9
2019-05-28T12:15:21.630Z,2.9
2019-05-28T12:16:22.326Z,5.0
2019-05-28T12:17:40.710Z,4.9
2019-05-28T12:18:24.687Z,4.1
2019-05-28T12:19:25.390Z,4.8
2019-05-28T12:20:26.089Z,7.8
2019-05-28T12:21:26.793Z,2.8
2019-05-28T12:22:27.496Z,6.6
2019-05-28T12:23:28.199Z,4.1
2019-05-28T12:24:29.069Z,5.2
2019-05-28T12:25:29.598Z,3.4
2019-05-28T12:26:30.305Z,2.4
2019-05-28T12:27:30.999Z,3.6
2019-05-28T12:28:37.667Z,3.5
2019-05-28T12:29:32.401Z,3.9
2019-05-28T12:30:33.107Z,3.5
2019-05-28T12:31:33.808Z,3.7
2019-05-28T12:32:34.513Z,3.8
2019-05-28T12:33:35.210Z,5.5
2019-05-28T12:34:35.905Z,4.0
2019-05-28T12:35:36.601Z,4.3
2019-05-28T12:36:37.301Z,3.8
2019-05-28T12:37:47.873Z,3.3
2019-05-28T12:38:38.696Z,4.4
2019-05-28T12:39:39.400Z,4.5
2019-05-28T12:40:47.958Z,2.6
2019-05-28T12:41:40.792Z,4.2
2019-05-28T12:42:41.491Z,6.0
2019-05-28T12:43:42.187Z,6.8
2019-05-28T12:44:42.941Z,4.7
2019-05-28T12:45:43.579Z,3.7
2019-05-28T12:46:44.289Z,4.5
2019-05-28T12:47:44.969Z,3.2
2019-05-28T12:48:45.668Z,4.4
2019-05-28T12:49:46.489Z,5.4
2019-05-28T12:50:47.071Z,2.6
2019-05-28T12:51:47.768Z,4.7
2019-05-28T12:52:48.468Z,6.0
2019-05-28T12:53:51.396Z,5.4
2019-05-28T12:54:49.856Z,3.0
2019-05-28T12:55:50.557Z,3.5
2019-05-28T12:56:51.248Z,2.7
2019-05-28T12:57:52.051Z,6.6
2019-05-28T12:58:52.665Z,3.2
2019-05-28T12:59:53.336Z,3.8
2019-05-28T13:00:54.031Z,3.5
2019-05-28T13:01:54.731Z,3.2
2019-05-28T13:02:55.434Z,2.6
2019-05-28T13:03:56.135Z,3.4
2019-05-28T13:04:56.832Z,6.4
2019-05-28T13:05:57.529Z,6.1
2019-05-28T13:06:58.225Z,3.5
2019-05-28T13:08:08.281Z,2.7
2019-05-28T13:08:59.621Z,4.0
2019-05-28T13:10:00.323Z,3.3
2019-05-28T13:11:01.023Z,3.1
2019-05-28T13:12:01.671Z,4.5
2019-05-28T13:13:02.371Z,3.9
2019-05-28T13:14:03.071Z,5.2
2019-05-28T13:15:03.773Z,3.7
2019-05-28T13:16:04.519Z,3.1
2019-05-28T13:17:05.214Z,4.8
2019-05-28T13:18:05.910Z,6.1
2019-05-28T13:19:06.608Z,2.4
2019-05-28T13:20:07.343Z,4.1
2019-05-28T13:21:08.000Z,2.6
2019-05-28T13:22:08.792Z,4.6
2019-05-28T13:23:09.388Z,4.7
2019-05-28T13:24:10.124Z,2.8
2019-05-28T13:25:10.777Z,2.1
2019-05-28T13:26:14.571Z,2.7
2019-05-28T13:27:17.935Z,2.9
2019-05-28T13:28:12.905Z,2.7
2019-05-28T13:29:13.609Z,6.1
2019-05-28T13:30:14.640Z,4.5
2019-05-28T13:31:14.995Z,2.2
2019-05-28T13:32:15.695Z,5.7
2019-05-28T13:33:16.401Z,2.1
2019-05-28T13:34:17.090Z,3.0
2019-05-28T13:35:17.800Z,2.2
2019-05-28T13:36:18.486Z,9.9
2019-05-28T13:37:19.193Z,5.7
2019-05-28T13:38:26.792Z,2.9
2019-05-28T13:39:20.569Z,2.1
2019-05-28T13:40:21.260Z,2.3
2019-05-28T13:41:21.980Z,3.1
2019-05-28T13:42:22.661Z,5.0
2019-05-28T13:43:23.353Z,4.4
2019-05-28T13:44:24.051Z,3.3
2019-05-28T13:45:24.748Z,4.7
2019-05-28T13:46:25.441Z,2.8
2019-05-28T13:47:33.408Z,2.0
2019-05-28T13:48:26.832Z,3.0
2019-05-28T13:49:27.531Z,3.3